sensor_id;sensor_type;location;lat;lon;timestamp;pressure;altitude;pressure_sealevel;temperature;humidity
56671;BME280;42545;50.054;8.306;2022-11-12T00:01:08;101672.34;;;5.37;100.00
56671;BME280;42545;50.054;8.306;2022-11-12T00:03:36;101670.41;;;5.34;100.00
56671;BME280;42545;50.054;8.306;2022-11-12T00:06:09;101667.69;;;5.33;100.00
56671;BME280;42545;50.054;8.306;2022-11-12T00:08:36;101675.75;;;5.36;100.00
56671;BME280;42545;50.054;8.306;2022-11-12T00:11:03;101676.75;;;5.38;100.00
56671;BME280;42545;50.054;8.306;2022-11-12T00:13:31;101677.47;;;5.35;100.00
56671;BME280;42545;50.054;8.306;2022-11-12T00:15:58;101673.97;;;5.35;100.00
56671;BME280;42545;50.054;8.306;2022-11-12T00:18:26;101676.47;;;5.33;100.00
56671;BME280;42545;50.054;8.306;2022-11-12T00:20:53;101673.84;;;5.33;100.00
56671;BME280;42545;50.054;8.306;2022-11-12T00:23:22;101677.47;;;5.35;100.00
56671;BME280;42545;50.054;8.306;2022-11-12T00:25:57;101679.09;;;5.33;100.00
56671;BME280;42545;50.054;8.306;2022-11-12T00:28:26;101683.13;;;5.28;100.00
56671;BME280;42545;50.054;8.306;2022-11-12T00:30:54;101689.25;;;5.29;100.00
56671;BME280;42545;50.054;8.306;2022-11-12T00:33:21;101684.84;;;5.28;100.00
56671;BME280;42545;50.054;8.306;2022-11-12T00:35:48;101691.88;;;5.29;100.00
56671;BME280;42545;50.054;8.306;2022-11-12T00:38:15;101680.50;;;5.28;100.00
56671;BME280;42545;50.054;8.306;2022-11-12T00:40:44;101677.88;;;5.28;100.00
56671;BME280;42545;50.054;8.306;2022-11-12T00:43:13;101689.97;;;5.26;100.00
56671;BME280;42545;50.054;8.306;2022-11-12T00:45:41;101696.00;;;5.25;100.00
56671;BME280;42545;50.054;8.306;2022-11-12T00:48:08;101700.97;;;5.20;100.00
56671;BME280;42545;50.054;8.306;2022-11-12T00:50:35;101689.66;;;5.22;100.00
56671;BME280;42545;50.054;8.306;2022-11-12T00:53:02;101692.13;;;5.18;100.00
56671;BME280;42545;50.054;8.306;2022-11-12T00:55:30;101696.41;;;5.18;100.00
56671;BME280;42545;50.054;8.306;2022-11-12T00:57:59;101689.38;;;5.17;100.00
56671;BME280;42545;50.054;8.306;2022-11-12T01:00:26;101687.06;;;5.22;100.00
56671;BME280;42545;50.054;8.306;2022-11-12T01:02:53;101688.78;;;5.21;100.00
56671;BME280;42545;50.054;8.306;2022-11-12T01:05:21;101681.66;;;5.18;100.00
56671;BME280;42545;50.054;8.306;2022-11-12T01:07:48;101685.94;;;5.18;100.00
56671;BME280;42545;50.054;8.306;2022-11-12T01:10:15;101682.44;;;5.17;100.00
56671;BME280;42545;50.054;8.306;2022-11-12T01:12:43;101672.88;;;5.18;100.00
56671;BME280;42545;50.054;8.306;2022-11-12T01:15:12;101681.53;;;5.17;100.00
56671;BME280;42545;50.054;8.306;2022-11-12T01:17:39;101685.84;;;5.16;100.00
56671;BME280;42545;50.054;8.306;2022-11-12T01:20:07;101679.63;;;5.14;100.00
56671;BME280;42545;50.054;8.306;2022-11-12T01:22:34;101680.53;;;5.15;100.00
56671;BME280;42545;50.054;8.306;2022-11-12T01:25:01;101685.84;;;5.16;100.00
56671;BME280;42545;50.054;8.306;2022-11-12T01:27:28;101686.56;;;5.14;100.00
56671;BME280;42545;50.054;8.306;2022-11-12T01:29:55;101678.50;;;5.11;100.00
56671;BME280;42545;50.054;8.306;2022-11-12T01:32:25;101683.75;;;5.11;100.00
56671;BME280;42545;50.054;8.306;2022-11-12T01:34:54;101675.91;;;5.11;100.00
56671;BME280;42545;50.054;8.306;2022-11-12T01:37:21;101677.34;;;5.06;100.00
56671;BME280;42545;50.054;8.306;2022-11-12T01:39:50;101676.13;;;5.00;100.00
56671;BME280;42545;50.054;8.306;2022-11-12T01:42:17;101684.09;;;5.02;100.00
56671;BME280;42545;50.054;8.306;2022-11-12T01:44:44;101677.03;;;5.01;100.00
56671;BME280;42545;50.054;8.306;2022-11-12T01:47:14;101668.88;;;4.96;100.00
56671;BME280;42545;50.054;8.306;2022-11-12T01:49:50;101678.63;;;4.99;100.00
56671;BME280;42545;50.054;8.306;2022-11-12T01:52:21;101673.19;;;4.96;100.00
56671;BME280;42545;50.054;8.306;2022-11-12T01:54:52;101672.31;;;4.95;100.00
56671;BME280;42545;50.054;8.306;2022-11-12T01:57:24;101666.84;;;4.92;100.00
56671;BME280;42545;50.054;8.306;2022-11-12T01:59:56;101660.94;;;4.95;100.00
56671;BME280;42545;50.054;8.306;2022-11-12T02:02:26;101668.69;;;4.93;100.00
56671;BME280;42545;50.054;8.306;2022-11-12T02:04:56;101658.13;;;4.92;100.00
56671;BME280;42545;50.054;8.306;2022-11-12T02:07:24;101659.00;;;4.92;100.00
56671;BME280;42545;50.054;8.306;2022-11-12T02:09:53;101651.38;;;4.95;100.00
56671;BME280;42545;50.054;8.306;2022-11-12T02:12:22;101656.00;;;4.99;100.00
56671;BME280;42545;50.054;8.306;2022-11-12T02:15:07;101656.19;;;5.03;100.00
56671;BME280;42545;50.054;8.306;2022-11-12T02:17:34;101650.06;;;5.02;100.00
56671;BME280;42545;50.054;8.306;2022-11-12T02:20:03;101647.44;;;5.02;100.00
56671;BME280;42545;50.054;8.306;2022-11-12T02:22:32;101644.91;;;5.04;100.00
56671;BME280;42545;50.054;8.306;2022-11-12T02:24:58;101645.31;;;4.96;100.00
56671;BME280;42545;50.054;8.306;2022-11-12T02:27:25;101646.25;;;4.97;100.00
56671;BME280;42545;50.054;8.306;2022-11-12T02:29:56;101659.59;;;5.01;100.00
56671;BME280;42545;50.054;8.306;2022-11-12T02:32:23;101650.25;;;5.05;100.00
56671;BME280;42545;50.054;8.306;2022-11-12T02:34:51;101653.69;;;5.04;100.00
56671;BME280;42545;50.054;8.306;2022-11-12T02:37:18;101655.38;;;5.04;100.00
56671;BME280;42545;50.054;8.306;2022-11-12T02:39:48;101651.06;;;5.04;100.00
56671;BME280;42545;50.054;8.306;2022-11-12T02:42:16;101641.50;;;5.05;100.00
56671;BME280;42545;50.054;8.306;2022-11-12T02:44:42;101653.69;;;5.04;100.00
56671;BME280;42545;50.054;8.306;2022-11-12T02:47:09;101642.22;;;5.02;100.00
56671;BME280;42545;50.054;8.306;2022-11-12T02:49:36;101646.53;;;5.01;100.00
56671;BME280;42545;50.054;8.306;2022-11-12T02:52:06;101647.25;;;4.99;100.00
56671;BME280;42545;50.054;8.306;2022-11-12T02:54:32;101648.75;;;4.95;100.00
56671;BME280;42545;50.054;8.306;2022-11-12T02:57:01;101658.31;;;4.95;100.00
56671;BME280;42545;50.054;8.306;2022-11-12T02:59:29;101652.16;;;4.94;100.00
56671;BME280;42545;50.054;8.306;2022-11-12T03:01:57;101659.31;;;4.97;100.00
56671;BME280;42545;50.054;8.306;2022-11-12T03:04:24;101656.81;;;4.98;100.00
56671;BME280;42545;50.054;8.306;2022-11-12T03:06:51;101644.53;;;4.97;100.00
56671;BME280;42545;50.054;8.306;2022-11-12T03:09:18;101651.59;;;4.98;100.00
56671;BME280;42545;50.054;8.306;2022-11-12T03:11:45;101656.00;;;4.99;100.00
56671;BME280;42545;50.054;8.306;2022-11-12T03:14:16;101645.53;;;4.99;100.00
56671;BME280;42545;50.054;8.306;2022-11-12T03:16:46;101646.53;;;5.01;100.00
56671;BME280;42545;50.054;8.306;2022-11-12T03:19:13;101645.63;;;5.01;100.00
56671;BME280;42545;50.054;8.306;2022-11-12T03:21:39;101646.53;;;5.01;100.00
56671;BME280;42545;50.054;8.306;2022-11-12T03:24:06;101649.13;;;5.01;100.00
56671;BME280;42545;50.054;8.306;2022-11-12T03:26:33;101653.47;;;5.01;100.00
56671;BME280;42545;50.054;8.306;2022-11-12T03:29:00;101651.59;;;4.98;100.00
56671;BME280;42545;50.054;8.306;2022-11-12T03:31:29;101644.53;;;4.97;100.00
56671;BME280;42545;50.054;8.306;2022-11-12T03:33:56;101641.81;;;4.96;100.00
56671;BME280;42545;50.054;8.306;2022-11-12T03:36:23;101640.81;;;4.94;100.00
56671;BME280;42545;50.054;8.306;2022-11-12T03:38:50;101640.81;;;4.94;100.00
56671;BME280;42545;50.054;8.306;2022-11-12T03:41:17;101645.25;;;4.95;100.00
56671;BME280;42545;50.054;8.306;2022-11-12T03:43:44;101645.25;;;4.95;100.00
56671;BME280;42545;50.054;8.306;2022-11-12T03:46:11;101639.00;;;4.93;100.00
56671;BME280;42545;50.054;8.306;2022-11-12T03:48:40;101638.09;;;4.92;100.00
56671;BME280;42545;50.054;8.306;2022-11-12T03:51:08;101640.81;;;4.94;100.00
56671;BME280;42545;50.054;8.306;2022-11-12T03:53:36;101631.06;;;4.91;100.00
56671;BME280;42545;50.054;8.306;2022-11-12T03:56:04;101625.63;;;4.88;100.00
56671;BME280;42545;50.054;8.306;2022-11-12T03:58:33;101630.06;;;4.89;100.00
56671;BME280;42545;50.054;8.306;2022-11-12T04:01:00;101631.66;;;4.87;100.00
56671;BME280;42545;50.054;8.306;2022-11-12T04:03:27;101629.84;;;4.86;100.00
56671;BME280;42545;50.054;8.306;2022-11-12T04:05:56;101626.13;;;4.82;100.00
56671;BME280;42545;50.054;8.306;2022-11-12T04:08:42;101634.66;;;4.80;100.00
56671;BME280;42545;50.054;8.306;2022-11-12T04:11:10;101629.06;;;4.74;100.00
56671;BME280;42545;50.054;8.306;2022-11-12T04:13:38;101629.47;;;4.67;100.00
56671;BME280;42545;50.054;8.306;2022-11-12T04:16:11;101635.91;;;4.58;100.00
56671;BME280;42545;50.054;8.306;2022-11-12T04:18:56;101632.06;;;4.53;100.00
56671;BME280;42545;50.054;8.306;2022-11-12T04:21:44;101640.59;;;4.51;100.00
56671;BME280;42545;50.054;8.306;2022-11-12T04:24:22;101642.09;;;4.47;100.00
56671;BME280;42545;50.054;8.306;2022-11-12T04:27:08;101644.44;;;4.42;100.00
56671;BME280;42545;50.054;8.306;2022-11-12T04:29:37;101634.75;;;4.41;100.00
56671;BME280;42545;50.054;8.306;2022-11-12T04:32:22;101636.38;;;4.39;100.00
56671;BME280;42545;50.054;8.306;2022-11-12T04:34:49;101638.81;;;4.36;100.00
56671;BME280;42545;50.054;8.306;2022-11-12T04:37:19;101639.91;;;4.40;100.00
56671;BME280;42545;50.054;8.306;2022-11-12T04:39:46;101641.50;;;4.38;100.00
56671;BME280;42545;50.054;8.306;2022-11-12T04:42:15;101642.31;;;4.37;100.00
56671;BME280;42545;50.054;8.306;2022-11-12T04:44:59;101637.88;;;4.36;100.00
56671;BME280;42545;50.054;8.306;2022-11-12T04:47:30;101636.19;;;4.36;100.00
56671;BME280;42545;50.054;8.306;2022-11-12T04:50:05;101644.72;;;4.34;100.00
56671;BME280;42545;50.054;8.306;2022-11-12T04:52:33;101657.38;;;4.28;100.00
56671;BME280;42545;50.054;8.306;2022-11-12T04:55:00;101655.38;;;4.23;100.00
56671;BME280;42545;50.054;8.306;2022-11-12T04:57:27;101661.28;;;4.21;100.00
56671;BME280;42545;50.054;8.306;2022-11-12T05:00:03;101658.38;;;4.16;100.00
56671;BME280;42545;50.054;8.306;2022-11-12T05:02:34;101653.53;;;4.09;100.00
56671;BME280;42545;50.054;8.306;2022-11-12T05:05:02;101659.13;;;4.02;100.00
56671;BME280;42545;50.054;8.306;2022-11-12T05:07:30;101663.84;;;3.94;100.00
56671;BME280;42545;50.054;8.306;2022-11-12T05:09:59;101656.47;;;3.89;100.00
56671;BME280;42545;50.054;8.306;2022-11-12T05:12:31;101658.66;;;3.82;100.00
56671;BME280;42545;50.054;8.306;2022-11-12T05:15:02;101656.53;;;3.77;100.00
56671;BME280;42545;50.054;8.306;2022-11-12T05:17:28;101663.03;;;3.70;100.00
56671;BME280;42545;50.054;8.306;2022-11-12T05:19:57;101655.06;;;3.69;100.00
56671;BME280;42545;50.054;8.306;2022-11-12T05:22:27;101654.06;;;3.66;100.00
56671;BME280;42545;50.054;8.306;2022-11-12T05:24:54;101652.94;;;3.63;100.00
56671;BME280;42545;50.054;8.306;2022-11-12T05:27:22;101652.88;;;3.61;100.00
56671;BME280;42545;50.054;8.306;2022-11-12T05:29:51;101652.75;;;3.60;100.00
56671;BME280;42545;50.054;8.306;2022-11-12T05:32:18;101647.53;;;3.60;100.00
56671;BME280;42545;50.054;8.306;2022-11-12T05:34:45;101660.78;;;3.63;100.00
56671;BME280;42545;50.054;8.306;2022-11-12T05:37:15;101657.38;;;3.64;100.00
56671;BME280;42545;50.054;8.306;2022-11-12T05:39:44;101654.88;;;3.65;100.00
56671;BME280;42545;50.054;8.306;2022-11-12T05:42:12;101656.91;;;3.70;100.00
56671;BME280;42545;50.054;8.306;2022-11-12T05:44:41;101651.78;;;3.71;100.00
56671;BME280;42545;50.054;8.306;2022-11-12T05:47:08;101652.91;;;3.75;100.00
56671;BME280;42545;50.054;8.306;2022-11-12T05:49:36;101653.91;;;3.77;100.00
56671;BME280;42545;50.054;8.306;2022-11-12T05:52:07;101652.09;;;3.76;100.00
56671;BME280;42545;50.054;8.306;2022-11-12T05:54:34;101655.53;;;3.75;100.00
56671;BME280;42545;50.054;8.306;2022-11-12T05:57:03;101645.97;;;3.75;100.00
56671;BME280;42545;50.054;8.306;2022-11-12T05:59:30;101649.41;;;3.74;100.00
56671;BME280;42545;50.054;8.306;2022-11-12T06:01:59;101647.34;;;3.70;100.00
56671;BME280;42545;50.054;8.306;2022-11-12T06:04:28;101658.91;;;3.74;100.00
56671;BME280;42545;50.054;8.306;2022-11-12T06:06:55;101663.34;;;3.75;100.00
56671;BME280;42545;50.054;8.306;2022-11-12T06:09:27;101661.63;;;3.75;100.00
56671;BME280;42545;50.054;8.306;2022-11-12T06:11:55;101672.91;;;3.74;100.00
56671;BME280;42545;50.054;8.306;2022-11-12T06:14:22;101674.59;;;3.74;100.00
56671;BME280;42545;50.054;8.306;2022-11-12T06:16:50;101678.44;;;3.79;100.00
56671;BME280;42545;50.054;8.306;2022-11-12T06:19:19;101672.50;;;3.81;100.00
56671;BME280;42545;50.054;8.306;2022-11-12T06:21:46;101666.72;;;3.85;100.00
56671;BME280;42545;50.054;8.306;2022-11-12T06:24:14;101673.06;;;3.89;100.00
56671;BME280;42545;50.054;8.306;2022-11-12T06:26:41;101672.47;;;3.93;100.00
56671;BME280;42545;50.054;8.306;2022-11-12T06:29:08;101678.56;;;3.94;100.00
56671;BME280;42545;50.054;8.306;2022-11-12T06:31:39;101664.22;;;3.87;100.00
56671;BME280;42545;50.054;8.306;2022-11-12T06:34:08;101673.25;;;3.92;100.00
56671;BME280;42545;50.054;8.306;2022-11-12T06:36:38;101679.41;;;3.93;100.00
56671;BME280;42545;50.054;8.306;2022-11-12T06:39:06;101681.31;;;3.95;100.00
56671;BME280;42545;50.054;8.306;2022-11-12T06:41:33;101675.19;;;3.95;100.00
56671;BME280;42545;50.054;8.306;2022-11-12T06:44:02;101673.56;;;3.97;100.00
56671;BME280;42545;50.054;8.306;2022-11-12T06:46:30;101674.38;;;3.96;100.00
56671;BME280;42545;50.054;8.306;2022-11-12T06:48:59;101671.97;;;3.99;100.00
56671;BME280;42545;50.054;8.306;2022-11-12T06:51:26;101676.31;;;3.98;100.00
56671;BME280;42545;50.054;8.306;2022-11-12T06:53:54;101673.81;;;4.00;100.00
56671;BME280;42545;50.054;8.306;2022-11-12T06:56:22;101677.53;;;4.03;100.00
56671;BME280;42545;50.054;8.306;2022-11-12T06:58:48;101668.97;;;4.06;100.00
56671;BME280;42545;50.054;8.306;2022-11-12T07:01:16;101666.59;;;4.09;100.00
56671;BME280;42545;50.054;8.306;2022-11-12T07:03:43;101678.03;;;4.11;100.00
56671;BME280;42545;50.054;8.306;2022-11-12T07:06:13;101683.28;;;4.11;100.00
56671;BME280;42545;50.054;8.306;2022-11-12T07:08:42;101675.44;;;4.11;100.00
56671;BME280;42545;50.054;8.306;2022-11-12T07:11:10;101674.31;;;4.08;100.00
56671;BME280;42545;50.054;8.306;2022-11-12T07:13:38;101665.66;;;4.09;100.00
56671;BME280;42545;50.054;8.306;2022-11-12T07:16:08;101675.44;;;4.11;100.00
56671;BME280;42545;50.054;8.306;2022-11-12T07:18:38;101675.53;;;4.13;100.00
56671;BME280;42545;50.054;8.306;2022-11-12T07:21:06;101677.22;;;4.12;100.00
56671;BME280;42545;50.054;8.306;2022-11-12T07:23:35;101672.59;;;4.08;100.00
56671;BME280;42545;50.054;8.306;2022-11-12T07:26:04;101677.03;;;4.09;100.00
56671;BME280;42545;50.054;8.306;2022-11-12T07:28:36;101687.38;;;4.08;100.00
56671;BME280;42545;50.054;8.306;2022-11-12T07:31:04;101680.13;;;4.03;100.00
56671;BME280;42545;50.054;8.306;2022-11-12T07:33:34;101684.88;;;4.09;100.00
56671;BME280;42545;50.054;8.306;2022-11-12T07:36:04;101682.03;;;4.06;100.00
56671;BME280;42545;50.054;8.306;2022-11-12T07:38:32;101686.78;;;4.12;100.00
56671;BME280;42545;50.054;8.306;2022-11-12T07:41:02;101689.50;;;4.13;100.00
56671;BME280;42545;50.054;8.306;2022-11-12T07:43:31;101689.63;;;4.15;100.00
56671;BME280;42545;50.054;8.306;2022-11-12T07:46:04;101692.13;;;4.13;100.00
56671;BME280;42545;50.054;8.306;2022-11-12T07:48:32;101687.91;;;4.15;100.00
56671;BME280;42545;50.054;8.306;2022-11-12T07:51:00;101699.34;;;4.17;100.00
56671;BME280;42545;50.054;8.306;2022-11-12T07:53:27;101686.06;;;4.14;100.00
56671;BME280;42545;50.054;8.306;2022-11-12T07:55:54;101675.72;;;4.16;100.00
56671;BME280;42545;50.054;8.306;2022-11-12T07:58:23;101675.84;;;4.17;100.00
56671;BME280;42545;50.054;8.306;2022-11-12T08:00:52;101685.13;;;4.26;100.00
56671;BME280;42545;50.054;8.306;2022-11-12T08:03:21;101684.63;;;4.31;100.00
56671;BME280;42545;50.054;8.306;2022-11-12T08:05:49;101676.06;;;4.34;100.00
56671;BME280;42545;50.054;8.306;2022-11-12T08:08:17;101687.88;;;4.40;100.00
56671;BME280;42545;50.054;8.306;2022-11-12T08:10:55;101689.09;;;4.46;100.00
56671;BME280;42545;50.054;8.306;2022-11-12T08:13:24;101686.75;;;4.50;100.00
56671;BME280;42545;50.054;8.306;2022-11-12T08:15:51;101677.41;;;4.54;100.00
56671;BME280;42545;50.054;8.306;2022-11-12T08:18:22;101680.47;;;4.60;100.00
56671;BME280;42545;50.054;8.306;2022-11-12T08:20:49;101674.31;;;4.59;100.00
56671;BME280;42545;50.054;8.306;2022-11-12T08:23:16;101679.03;;;4.65;100.00
56671;BME280;42545;50.054;8.306;2022-11-12T08:25:43;101682.75;;;4.69;100.00
56671;BME280;42545;50.054;8.306;2022-11-12T08:28:11;101674.00;;;4.68;100.00
56671;BME280;42545;50.054;8.306;2022-11-12T08:30:40;101680.25;;;4.70;100.00
56671;BME280;42545;50.054;8.306;2022-11-12T08:33:07;101679.34;;;4.70;100.00
56671;BME280;42545;50.054;8.306;2022-11-12T08:35:37;101681.84;;;4.68;100.00
56671;BME280;42545;50.054;8.306;2022-11-12T08:38:06;101683.56;;;4.68;100.00
56671;BME280;42545;50.054;8.306;2022-11-12T08:40:38;101677.41;;;4.67;100.00
56671;BME280;42545;50.054;8.306;2022-11-12T08:43:08;101680.97;;;4.68;100.00
56671;BME280;42545;50.054;8.306;2022-11-12T08:45:38;101689.91;;;4.71;100.00
56671;BME280;42545;50.054;8.306;2022-11-12T08:48:07;101686.47;;;4.72;100.00
56671;BME280;42545;50.054;8.306;2022-11-12T08:50:40;101678.53;;;4.71;100.00
56671;BME280;42545;50.054;8.306;2022-11-12T08:53:08;101688.19;;;4.72;100.00
56671;BME280;42545;50.054;8.306;2022-11-12T08:55:35;101691.69;;;4.72;100.00
56671;BME280;42545;50.054;8.306;2022-11-12T08:58:03;101686.59;;;4.74;100.00
56671;BME280;42545;50.054;8.306;2022-11-12T09:00:32;101677.94;;;4.75;100.00
56671;BME280;42545;50.054;8.306;2022-11-12T09:03:02;101679.13;;;4.80;100.00
56671;BME280;42545;50.054;8.306;2022-11-12T09:05:29;101682.06;;;4.85;100.00
56671;BME280;42545;50.054;8.306;2022-11-12T09:08:03;101687.59;;;4.89;100.00
56671;BME280;42545;50.054;8.306;2022-11-12T09:10:31;101692.00;;;4.90;100.00
56671;BME280;42545;50.054;8.306;2022-11-12T09:13:04;101692.00;;;4.90;100.00
56671;BME280;42545;50.054;8.306;2022-11-12T09:15:41;101687.16;;;4.96;100.00
56671;BME280;42545;50.054;8.306;2022-11-12T09:18:10;101693.72;;;5.03;100.00
56671;BME280;42545;50.054;8.306;2022-11-12T09:20:41;101687.88;;;5.07;100.00
56671;BME280;42545;50.054;8.306;2022-11-12T09:23:11;101683.84;;;5.12;100.00
56671;BME280;42545;50.054;8.306;2022-11-12T09:25:38;101684.84;;;5.14;100.00
56671;BME280;42545;50.054;8.306;2022-11-12T09:28:14;101666.94;;;5.07;100.00
56671;BME280;42545;50.054;8.306;2022-11-12T09:30:42;101688.56;;;5.18;100.00
56671;BME280;42545;50.054;8.306;2022-11-12T09:33:12;101690.50;;;5.20;100.00
56671;BME280;42545;50.054;8.306;2022-11-12T09:35:39;101689.88;;;5.25;100.00
56671;BME280;42545;50.054;8.306;2022-11-12T09:38:06;101686.53;;;5.27;100.00
56671;BME280;42545;50.054;8.306;2022-11-12T09:40:58;101686.53;;;5.27;100.00
56671;BME280;42545;50.054;8.306;2022-11-12T09:43:31;101682.41;;;5.31;100.00
56671;BME280;42545;50.054;8.306;2022-11-12T09:46:05;101675.47;;;5.31;100.00
56671;BME280;42545;50.054;8.306;2022-11-12T09:48:35;101683.84;;;5.26;100.00
56671;BME280;42545;50.054;8.306;2022-11-12T09:51:11;101688.97;;;5.24;100.00
56671;BME280;42545;50.054;8.306;2022-11-12T09:53:48;101688.97;;;5.24;100.00
56671;BME280;42545;50.054;8.306;2022-11-12T09:56:20;101688.16;;;5.25;100.00
56671;BME280;42545;50.054;8.306;2022-11-12T09:58:47;101685.13;;;5.32;100.00
56671;BME280;42545;50.054;8.306;2022-11-12T10:01:17;101683.50;;;5.34;100.00
56671;BME280;42545;50.054;8.306;2022-11-12T10:03:52;101682.91;;;5.38;100.00
56671;BME280;42545;50.054;8.306;2022-11-12T10:06:27;101682.97;;;5.40;100.00
56671;BME280;42545;50.054;8.306;2022-11-12T10:08:59;101686.53;;;5.41;100.00
56671;BME280;42545;50.054;8.306;2022-11-12T10:11:45;101684.09;;;5.44;100.00
56671;BME280;42545;50.054;8.306;2022-11-12T10:14:46;101682.47;;;5.46;100.00
56671;BME280;42545;50.054;8.306;2022-11-12T10:17:24;101676.44;;;5.47;100.00
56671;BME280;42545;50.054;8.306;2022-11-12T10:20:00;101668.59;;;5.47;100.00
56671;BME280;42545;50.054;8.306;2022-11-12T10:22:46;101663.25;;;5.45;100.00
56671;BME280;42545;50.054;8.306;2022-11-12T10:25:19;101663.34;;;5.47;100.00
56671;BME280;42545;50.054;8.306;2022-11-12T10:27:48;101657.00;;;5.43;100.00
56671;BME280;42545;50.054;8.306;2022-11-12T10:30:19;101655.38;;;5.45;100.00
56671;BME280;42545;50.054;8.306;2022-11-12T10:32:47;101656.22;;;5.44;100.00
56671;BME280;42545;50.054;8.306;2022-11-12T10:35:19;101658.91;;;5.46;100.00
56671;BME280;42545;50.054;8.306;2022-11-12T10:37:50;101657.38;;;5.49;100.00
56671;BME280;42545;50.054;8.306;2022-11-12T10:40:30;101661.94;;;5.52;100.00
56671;BME280;42545;50.054;8.306;2022-11-12T10:43:01;101659.22;;;5.50;100.00
56671;BME280;42545;50.054;8.306;2022-11-12T10:45:29;101657.69;;;5.54;100.00
56671;BME280;42545;50.054;8.306;2022-11-12T10:47:57;101655.16;;;5.55;100.00
56671;BME280;42545;50.054;8.306;2022-11-12T10:50:28;101644.91;;;5.58;100.00
56671;BME280;42545;50.054;8.306;2022-11-12T10:52:59;101642.19;;;5.57;100.00
56671;BME280;42545;50.054;8.306;2022-11-12T10:55:28;101642.59;;;5.50;100.00
56671;BME280;42545;50.054;8.306;2022-11-12T10:58:17;101651.81;;;5.58;100.00
56671;BME280;42545;50.054;8.306;2022-11-12T11:01:00;101651.94;;;5.59;100.00
56671;BME280;42545;50.054;8.306;2022-11-12T11:03:33;101645.16;;;5.63;100.00
56671;BME280;42545;50.054;8.306;2022-11-12T11:06:06;101639.81;;;5.62;100.00
56671;BME280;42545;50.054;8.306;2022-11-12T11:08:45;101634.69;;;5.63;100.00
56671;BME280;42545;50.054;8.306;2022-11-12T11:11:19;101630.44;;;5.65;100.00
56671;BME280;42545;50.054;8.306;2022-11-12T11:13:49;101638.31;;;5.65;100.00
56671;BME280;42545;50.054;8.306;2022-11-12T11:16:18;101630.66;;;5.68;100.00
56671;BME280;42545;50.054;8.306;2022-11-12T11:18:48;101630.91;;;5.73;100.00
56671;BME280;42545;50.054;8.306;2022-11-12T11:21:27;101626.59;;;5.73;100.00
56671;BME280;42545;50.054;8.306;2022-11-12T11:23:59;101618.75;;;5.73;100.00
56671;BME280;42545;50.054;8.306;2022-11-12T11:26:36;101629.38;;;5.76;100.00
56671;BME280;42545;50.054;8.306;2022-11-12T11:29:27;101620.81;;;5.79;100.00
56671;BME280;42545;50.054;8.306;2022-11-12T11:32:03;101635.63;;;5.78;100.00
56671;BME280;42545;50.054;8.306;2022-11-12T11:34:42;101615.38;;;5.76;100.00
56671;BME280;42545;50.054;8.306;2022-11-12T11:37:23;101622.09;;;5.86;100.00
56671;BME280;42545;50.054;8.306;2022-11-12T11:40:00;101621.63;;;5.93;100.00
56671;BME280;42545;50.054;8.306;2022-11-12T11:42:46;101619.25;;;5.96;100.00
56671;BME280;42545;50.054;8.306;2022-11-12T11:45:24;101613.28;;;5.99;100.00
56671;BME280;42545;50.054;8.306;2022-11-12T11:48:07;101604.91;;;6.04;100.00
56671;BME280;42545;50.054;8.306;2022-11-12T11:50:41;101599.19;;;6.11;100.00
56671;BME280;42545;50.054;8.306;2022-11-12T11:53:17;101599.38;;;6.14;100.00
56671;BME280;42545;50.054;8.306;2022-11-12T11:55:52;101595.03;;;6.15;100.00
56671;BME280;42545;50.054;8.306;2022-11-12T11:58:46;101604.91;;;6.19;100.00
56671;BME280;42545;50.054;8.306;2022-11-12T12:01:22;101604.81;;;6.18;100.00
56671;BME280;42545;50.054;8.306;2022-11-12T12:04:04;101601.28;;;6.17;100.00
56671;BME280;42545;50.054;8.306;2022-11-12T12:06:38;101603.91;;;6.17;100.00
56671;BME280;42545;50.054;8.306;2022-11-12T12:09:17;101602.44;;;6.22;100.00
56671;BME280;42545;50.054;8.306;2022-11-12T12:11:54;101599.22;;;6.26;100.00
56671;BME280;42545;50.054;8.306;2022-11-12T12:14:46;101592.44;;;6.30;100.00
56671;BME280;42545;50.054;8.306;2022-11-12T12:17:29;101592.69;;;6.34;100.00
56671;BME280;42545;50.054;8.306;2022-11-12T12:20:02;101591.22;;;6.40;100.00
56671;BME280;42545;50.054;8.306;2022-11-12T12:22:37;101586.97;;;6.42;100.00
56671;BME280;42545;50.054;8.306;2022-11-12T12:25:10;101595.03;;;6.45;100.00
56671;BME280;42545;50.054;8.306;2022-11-12T12:27:47;101591.34;;;6.41;100.00
56671;BME280;42545;50.054;8.306;2022-11-12T12:30:19;101586.00;;;6.40;100.00
56671;BME280;42545;50.054;8.306;2022-11-12T12:32:58;101582.63;;;6.42;100.00
56671;BME280;42545;50.054;8.306;2022-11-12T12:35:30;101575.03;;;6.47;100.00
56671;BME280;42545;50.054;8.306;2022-11-12T12:38:06;101574.94;;;6.45;100.00
56671;BME280;42545;50.054;8.306;2022-11-12T12:40:43;101562.91;;;6.49;100.00
56671;BME280;42545;50.054;8.306;2022-11-12T12:43:16;101569.81;;;6.47;100.00
56671;BME280;42545;50.054;8.306;2022-11-12T12:45:46;101562.63;;;6.44;100.00
56671;BME280;42545;50.054;8.306;2022-11-12T12:48:17;101568.81;;;6.45;100.00
56671;BME280;42545;50.054;8.306;2022-11-12T12:50:47;101564.56;;;6.47;100.00
56671;BME280;42545;50.054;8.306;2022-11-12T12:53:17;101561.19;;;6.49;100.00
56671;BME280;42545;50.054;8.306;2022-11-12T12:55:57;101554.78;;;6.44;100.00
56671;BME280;42545;50.054;8.306;2022-11-12T12:58:27;101553.22;;;6.48;100.00
56671;BME280;42545;50.054;8.306;2022-11-12T13:00:59;101555.16;;;6.50;100.00
56671;BME280;42545;50.054;8.306;2022-11-12T13:03:51;101548.16;;;6.51;100.00
56671;BME280;42545;50.054;8.306;2022-11-12T13:06:28;101546.44;;;6.51;100.00
56671;BME280;42545;50.054;8.306;2022-11-12T13:09:01;101541.38;;;6.54;100.00